createdAt,value
2018-03-25T00:01:12.281Z,90.80
2018-03-25T00:03:39.839Z,90.70
2018-03-25T00:06:07.370Z,90.90
2018-03-25T00:08:35.771Z,91.10
2018-03-25T00:11:04.141Z,91.10
2018-03-25T00:13:32.456Z,91.10
2018-03-25T00:15:59.980Z,91.10
2018-03-25T00:18:27.595Z,91.20
2018-03-25T00:20:55.542Z,91.20
2018-03-25T00:23:23.879Z,91.40
2018-03-25T00:25:51.419Z,91.40
2018-03-25T00:28:18.972Z,91.40
2018-03-25T00:30:47.409Z,91.50
2018-03-25T00:33:15.017Z,91.40
2018-03-25T00:35:43.308Z,91.70
2018-03-25T00:38:10.852Z,91.70
2018-03-25T00:40:39.162Z,91.70
2018-03-25T00:43:06.702Z,91.70
2018-03-25T00:45:35.058Z,91.80
2018-03-25T00:48:02.849Z,91.80
2018-03-25T00:50:31.162Z,91.80
2018-03-25T00:52:58.708Z,91.70
2018-03-25T00:55:26.993Z,92.00
2018-03-25T00:57:55.570Z,92.00
2018-03-25T01:00:23.878Z,92.10
2018-03-25T01:02:51.410Z,92.10
2018-03-25T01:05:19.736Z,92.20
2018-03-25T01:07:47.336Z,92.20
2018-03-25T01:10:14.912Z,92.20
2018-03-25T01:12:42.456Z,92.20
2018-03-25T01:15:09.994Z,92.30
2018-03-25T01:17:37.589Z,92.40
2018-03-25T01:20:05.895Z,92.40
2018-03-25T01:22:33.469Z,92.40
2018-03-25T01:25:00.998Z,92.30
2018-03-25T01:27:28.541Z,92.30
2018-03-25T01:29:56.072Z,92.30
2018-03-25T01:32:24.385Z,92.20
2018-03-25T01:34:51.931Z,92.20
2018-03-25T01:37:20.239Z,92.30
2018-03-25T01:39:47.777Z,92.40
2018-03-25T01:42:16.130Z,92.50
2018-03-25T01:44:43.690Z,92.50
2018-03-25T01:47:11.542Z,92.50
2018-03-25T01:49:39.085Z,92.60
2018-03-25T01:52:06.632Z,92.70
2018-03-25T01:54:34.178Z,92.80
2018-03-25T01:57:01.717Z,93.00
2018-03-25T01:59:29.626Z,92.60
2018-03-25T02:01:57.182Z,92.80
2018-03-25T02:04:24.728Z,92.80
2018-03-25T02:06:52.262Z,92.80
2018-03-25T02:09:19.802Z,92.90
2018-03-25T02:11:47.389Z,93.00
2018-03-25T02:14:14.928Z,93.10
2018-03-25T02:16:42.465Z,93.10
2018-03-25T02:19:10.081Z,93.20
2018-03-25T02:21:37.700Z,93.30
2018-03-25T02:24:05.271Z,93.30
2018-03-25T02:26:32.801Z,93.30
2018-03-25T02:29:00.438Z,93.20
2018-03-25T02:31:27.978Z,93.20
2018-03-25T02:33:56.285Z,93.40
2018-03-25T02:36:23.842Z,93.40
2018-03-25T02:38:51.464Z,93.60
2018-03-25T02:41:18.993Z,93.60
2018-03-25T02:43:46.520Z,93.50
2018-03-25T02:46:14.821Z,93.90
2018-03-25T02:48:42.659Z,93.90
2018-03-25T02:51:10.199Z,94.00
2018-03-25T02:53:37.760Z,94.10
2018-03-25T02:56:05.349Z,94.10
2018-03-25T02:58:32.868Z,94.30
2018-03-25T03:01:00.443Z,94.20
2018-03-25T03:03:27.986Z,94.10
2018-03-25T03:05:55.797Z,94.20
2018-03-25T03:08:23.360Z,94.30
2018-03-25T03:10:50.971Z,94.40
2018-03-25T03:13:19.355Z,94.40
2018-03-25T03:15:47.671Z,94.30
2018-03-25T03:18:15.189Z,94.30
2018-03-25T03:20:42.747Z,94.30
2018-03-25T03:23:10.299Z,94.30
2018-03-25T03:25:38.223Z,94.40
2018-03-25T03:28:05.809Z,94.40
2018-03-25T03:30:33.351Z,94.30
2018-03-25T03:33:01.711Z,94.20
2018-03-25T03:35:29.217Z,94.50
2018-03-25T03:37:56.906Z,94.30
2018-03-25T03:40:24.442Z,94.30
2018-03-25T03:42:51.984Z,94.30
2018-03-25T03:45:20.289Z,94.40
2018-03-25T03:47:47.826Z,94.30
2018-03-25T03:50:15.373Z,94.40
2018-03-25T03:52:42.929Z,94.50
2018-03-25T03:55:10.480Z,94.40
2018-03-25T03:57:38.021Z,94.40
2018-03-25T04:00:05.643Z,94.70
2018-03-25T04:02:33.242Z,94.80
2018-03-25T04:05:00.775Z,95.00
2018-03-25T04:07:28.307Z,94.60
2018-03-25T04:09:55.838Z,94.50
2018-03-25T04:12:23.371Z,94.40
2018-03-25T04:14:50.927Z,94.50
2018-03-25T04:17:18.470Z,94.40
2018-03-25T04:19:46.019Z,94.50
2018-03-25T04:22:13.575Z,94.40
2018-03-25T04:24:41.116Z,94.10
2018-03-25T04:27:09.394Z,94.30
2018-03-25T04:29:37.698Z,94.20
2018-03-25T04:32:05.225Z,94.20
2018-03-25T04:34:32.785Z,94.30
2018-03-25T04:37:00.323Z,94.40
2018-03-25T04:39:27.870Z,94.40
2018-03-25T04:41:55.446Z,94.50
2018-03-25T04:44:22.989Z,94.50
2018-03-25T04:46:50.515Z,94.50
2018-03-25T04:49:18.072Z,94.40
2018-03-25T04:51:45.653Z,94.40
2018-03-25T04:54:13.188Z,94.70
2018-03-25T04:56:40.764Z,94.80
2018-03-25T04:59:08.303Z,95.00
2018-03-25T05:01:35.853Z,95.10
2018-03-25T05:04:03.453Z,95.30
2018-03-25T05:06:31.088Z,95.70
2018-03-25T05:08:58.618Z,95.40
2018-03-25T05:11:26.174Z,95.40
2018-03-25T05:13:53.695Z,95.60
2018-03-25T05:16:21.255Z,95.60
2018-03-25T05:18:48.798Z,95.30
2018-03-25T06:16:02.587Z,95.10
2018-03-25T06:18:39.340Z,95.00
2018-03-25T06:21:16.306Z,95.10
2018-03-25T06:23:54.233Z,94.90
2018-03-25T06:26:23.497Z,94.90
2018-03-25T06:29:01.047Z,94.70
2018-03-25T06:31:34.671Z,94.50
2018-03-25T06:34:10.436Z,94.30
2018-03-25T06:36:53.385Z,94.20
2018-03-25T06:39:22.738Z,94.30
2018-03-25T06:42:00.725Z,93.90
2018-03-25T06:44:31.129Z,93.90
2018-03-25T06:47:07.367Z,93.70
2018-03-25T06:49:48.416Z,93.60
2018-03-25T06:52:19.741Z,93.40
2018-03-25T06:54:55.771Z,93.40
2018-03-25T06:57:23.250Z,93.30
2018-03-25T07:00:02.908Z,93.10
2018-03-25T07:02:44.485Z,93.00
2018-03-25T07:05:27.390Z,92.90
2018-03-25T07:10:47.723Z,92.70
2018-03-25T07:16:03.094Z,92.20
2018-03-25T07:18:37.447Z,92.10
2018-03-25T07:21:17.695Z,91.90
2018-03-25T07:23:54.927Z,91.90
2018-03-25T07:26:23.099Z,91.80
2018-03-25T07:29:01.143Z,91.70
2018-03-25T07:31:28.606Z,91.50
2018-03-25T07:36:49.093Z,91.10
2018-03-25T07:39:20.402Z,90.90
2018-03-25T07:41:55.260Z,90.70
2018-03-25T07:44:46.349Z,90.70
2018-03-25T07:47:35.632Z,90.40
2018-03-25T07:50:17.821Z,90.30
2018-03-25T07:52:58.954Z,90.30
2018-03-25T07:55:34.336Z,90.00
2018-03-25T07:58:18.059Z,89.60
2018-03-25T08:00:53.158Z,88.80
2018-03-25T08:03:22.413Z,88.80
2018-03-25T08:06:00.419Z,88.30
2018-03-25T08:08:41.937Z,87.40
2018-03-25T08:11:18.658Z,87.40
2018-03-25T08:13:55.020Z,85.70
2018-03-25T08:16:26.462Z,85.30
2018-03-25T08:18:58.532Z,85.30
2018-03-25T08:21:28.303Z,84.60
2018-03-25T08:26:38.022Z,83.40
2018-03-25T08:29:06.274Z,82.00
2018-03-25T08:31:37.317Z,82.00
2018-03-25T08:34:19.245Z,81.60
2018-03-25T08:40:25.166Z,80.20
2018-03-25T08:48:43.647Z,78.30
2018-03-25T08:51:11.885Z,77.20
2018-03-25T08:53:51.106Z,77.10
2018-03-25T08:56:29.217Z,76.90
2018-03-25T08:58:57.150Z,76.70
2018-03-25T09:01:28.202Z,75.30
2018-03-25T09:04:10.048Z,75.30
2018-03-25T09:06:46.645Z,74.70
2018-03-25T09:09:20.430Z,74.30
2018-03-25T09:11:49.064Z,74.30
2018-03-25T09:14:16.550Z,73.30
2018-03-25T09:16:57.557Z,72.80
2018-03-25T09:22:38.772Z,71.90
2018-03-25T09:25:07.486Z,73.10
2018-03-25T09:27:57.573Z,73.00
2018-03-25T09:30:28.312Z,72.10
2018-03-25T09:39:01.988Z,69.30
2018-03-25T09:41:56.289Z,69.40
2018-03-25T10:00:05.153Z,68.00
2018-03-25T10:14:56.169Z,66.50
2018-03-25T10:20:58.202Z,67.00
2018-03-25T10:23:54.772Z,66.40
2018-03-25T10:32:30.989Z,65.30
2018-03-25T10:35:17.906Z,65.30
2018-03-25T10:43:48.186Z,62.00
2018-03-25T10:49:42.441Z,62.80
2018-03-25T10:52:31.549Z,64.00
2018-03-25T10:55:20.636Z,64.00
2018-03-25T10:58:19.982Z,62.30
2018-03-25T11:09:53.365Z,60.10
2018-03-25T11:12:22.796Z,60.60
2018-03-25T11:15:06.903Z,60.50
2018-03-25T11:17:42.056Z,57.20
2018-03-25T11:23:23.530Z,57.80
2018-03-25T11:26:11.807Z,57.20
2018-03-25T11:29:06.575Z,57.40
2018-03-25T11:31:36.016Z,57.10
2018-03-25T11:37:13.579Z,56.20
2018-03-25T11:39:48.228Z,56.20
2018-03-25T11:42:27.812Z,56.40
2018-03-25T11:44:55.858Z,55.10
2018-03-25T11:47:23.351Z,53.90
2018-03-25T11:49:56.420Z,55.10
2018-03-25T11:52:23.917Z,55.10
2018-03-25T11:55:11.461Z,55.10
2018-03-25T11:57:39.081Z,55.10
2018-03-25T12:00:06.553Z,54.40
2018-03-25T12:02:46.395Z,54.00
2018-03-25T12:05:30.095Z,54.00
2018-03-25T12:07:57.585Z,53.60
2018-03-25T12:10:25.050Z,53.20
2018-03-25T12:13:02.611Z,51.90
2018-03-25T12:15:44.971Z,52.50
2018-03-25T12:18:13.225Z,52.50
2018-03-25T12:23:23.277Z,52.20
2018-03-25T12:25:59.971Z,52.20
2018-03-25T12:28:43.018Z,52.60
2018-03-25T12:31:17.333Z,52.90
2018-03-25T12:33:56.336Z,52.90
2018-03-25T12:36:23.807Z,50.60
2018-03-25T12:38:59.903Z,50.80
2018-03-25T12:41:38.456Z,50.40
2018-03-25T12:44:19.036Z,49.90
2018-03-25T12:46:48.867Z,49.80
2018-03-25T12:49:16.359Z,50.40
2018-03-25T12:51:55.895Z,50.60
2018-03-25T12:54:23.391Z,50.60
2018-03-25T12:56:57.133Z,50.60
2018-03-25T12:59:24.616Z,50.60
2018-03-25T13:02:00.721Z,49.50
2018-03-25T13:04:38.411Z,49.40
2018-03-25T13:07:15.160Z,49.40
2018-03-25T13:09:55.904Z,49.20
2018-03-25T13:12:23.366Z,49.10
2018-03-25T13:15:03.237Z,49.70
2018-03-25T13:20:20.215Z,49.00
2018-03-25T13:22:47.677Z,49.00
2018-03-25T13:25:18.939Z,48.50
2018-03-25T13:27:46.404Z,47.60
2018-03-25T13:30:20.294Z,48.60
2018-03-25T13:32:57.539Z,49.10
2018-03-25T13:35:25.267Z,48.50
2018-03-25T13:37:58.130Z,49.30
2018-03-25T13:40:28.737Z,49.30
2018-03-25T13:43:03.712Z,48.50
2018-03-25T13:45:42.911Z,48.20
2018-03-25T13:48:12.789Z,49.20
2018-03-25T13:50:40.259Z,48.10
2018-03-25T13:53:08.492Z,46.40
2018-03-25T13:55:53.087Z,46.30
2018-03-25T13:58:20.542Z,46.70
2018-03-25T14:00:53.109Z,48.00
2018-03-25T14:03:20.578Z,47.50
2018-03-25T14:05:58.353Z,47.60
2018-03-25T14:11:42.372Z,47.90
2018-03-25T14:22:43.810Z,46.30
2018-03-25T14:25:20.644Z,46.30
2018-03-25T14:30:57.191Z,46.20
2018-03-25T14:33:33.548Z,46.20
2018-03-25T14:36:01.164Z,45.90
2018-03-25T14:38:46.663Z,45.80
2018-03-25T14:41:23.015Z,46.00
2018-03-25T14:43:50.836Z,46.10
2018-03-25T14:46:19.083Z,45.80
2018-03-25T14:49:00.390Z,45.80
2018-03-25T14:51:30.088Z,45.00
2018-03-25T14:53:57.596Z,45.00
2018-03-25T14:56:31.774Z,45.70
2018-03-25T14:59:18.186Z,46.00
2018-03-25T15:01:46.423Z,46.10
2018-03-25T15:04:13.931Z,46.10
2018-03-25T15:09:24.955Z,43.90
2018-03-25T15:11:59.271Z,44.20
2018-03-25T15:14:34.457Z,44.40
2018-03-25T15:17:16.636Z,44.80
2018-03-25T15:19:55.918Z,44.80
2018-03-25T15:22:24.150Z,44.00
2018-03-25T15:25:01.265Z,43.90
2018-03-25T15:27:30.274Z,44.80
2018-03-25T15:30:08.869Z,45.30
2018-03-25T15:32:46.009Z,45.30
2018-03-25T15:35:19.169Z,44.90
2018-03-25T15:37:55.533Z,44.90
2018-03-25T15:40:23.796Z,45.60
2018-03-25T15:42:59.424Z,45.30
2018-03-25T15:45:34.816Z,45.60
2018-03-25T15:48:20.356Z,44.60
2018-03-25T15:50:58.740Z,44.60
2018-03-25T15:53:33.549Z,45.20
2018-03-25T15:58:56.833Z,45.50
2018-03-25T16:01:24.324Z,45.20
2018-03-25T16:04:01.210Z,45.60
2018-03-25T16:06:39.929Z,45.90
2018-03-25T16:09:16.049Z,45.70
2018-03-25T16:11:56.833Z,45.90
2018-03-25T16:14:25.185Z,46.10
2018-03-25T16:17:01.683Z,46.20
2018-03-25T16:19:41.903Z,46.10
2018-03-25T16:22:19.512Z,46.00
2018-03-25T16:24:57.469Z,46.30
2018-03-25T16:27:24.939Z,46.40
2018-03-25T16:32:45.350Z,46.80
2018-03-25T16:35:17.607Z,46.80
2018-03-25T16:37:55.830Z,46.60
2018-03-25T16:40:23.300Z,46.60
2018-03-25T16:43:00.563Z,46.40
2018-03-25T16:45:40.944Z,46.50
2018-03-25T16:48:15.624Z,46.70
2018-03-25T16:50:54.658Z,47.00
2018-03-25T16:53:22.122Z,47.40
2018-03-25T16:56:00.966Z,47.70
2018-03-25T16:58:42.229Z,47.80
2018-03-25T17:01:15.998Z,48.10
2018-03-25T17:03:55.252Z,48.10
2018-03-25T17:06:22.981Z,47.90
2018-03-25T17:09:01.029Z,48.50
2018-03-25T17:11:42.932Z,48.60
2018-03-25T17:14:18.954Z,48.60
2018-03-25T17:16:57.682Z,49.20
2018-03-25T17:19:25.530Z,49.20
2018-03-25T17:22:05.558Z,49.60
2018-03-25T17:24:45.278Z,49.60
2018-03-25T17:27:26.091Z,49.90
2018-03-25T17:30:01.780Z,50.20
2018-03-25T17:32:41.520Z,50.50
2018-03-25T17:35:15.752Z,50.70
2018-03-25T17:37:56.285Z,50.70
2018-03-25T17:40:24.583Z,51.00
2018-03-25T17:45:56.982Z,51.20
2018-03-25T17:48:24.467Z,51.20
2018-03-25T17:50:51.965Z,51.10
2018-03-25T17:53:20.218Z,51.20
2018-03-25T17:56:00.677Z,51.10
2018-03-25T17:58:35.696Z,51.80
2018-03-25T18:01:19.875Z,52.40
2018-03-25T18:04:02.898Z,52.40
2018-03-25T18:09:50.899Z,52.70
2018-03-25T18:12:31.394Z,53.10
2018-03-25T18:20:56.290Z,53.60
2018-03-25T18:23:21.207Z,53.60
2018-03-25T18:25:59.489Z,54.30
2018-03-25T18:31:11.614Z,53.90
2018-03-25T18:33:51.047Z,54.00
2018-03-25T18:39:07.940Z,55.20
2018-03-25T18:41:43.787Z,55.20
2018-03-25T18:44:18.917Z,55.30
2018-03-25T18:46:56.735Z,55.90
2018-03-25T18:49:42.428Z,55.90
2018-03-25T18:52:10.518Z,56.20
2018-03-25T18:54:52.880Z,56.10
2018-03-25T18:57:23.338Z,55.80
2018-03-25T19:00:01.984Z,55.70
2018-03-25T19:02:38.011Z,55.30
2018-03-25T19:05:11.922Z,55.40
2018-03-25T19:07:58.299Z,55.60
2018-03-25T19:10:30.917Z,58.00
2018-03-25T19:12:58.518Z,58.00
2018-03-25T19:15:26.143Z,58.70
2018-03-25T19:21:08.392Z,58.20
2018-03-25T19:23:53.700Z,57.10
2018-03-25T19:29:41.707Z,57.20
2018-03-25T19:38:39.106Z,57.60
2018-03-25T19:41:36.350Z,57.50
2018-03-25T19:44:17.929Z,57.80
2018-03-25T19:46:52.043Z,57.70
2018-03-25T19:49:19.611Z,57.80
2018-03-25T19:54:47.605Z,57.50
2018-03-25T19:57:15.146Z,57.30
2018-03-25T20:00:01.722Z,57.40
2018-03-25T20:02:30.394Z,57.10
2018-03-25T20:04:57.998Z,57.20
2018-03-25T20:07:25.528Z,57.40
2018-03-25T20:09:53.046Z,57.40
2018-03-25T20:12:31.832Z,57.30
2018-03-25T20:15:08.817Z,57.40
2018-03-25T20:17:37.078Z,57.80
2018-03-25T20:20:04.594Z,57.80
2018-03-25T20:22:47.255Z,58.00
2018-03-25T20:25:26.873Z,57.90
2018-03-25T20:30:57.697Z,58.80
2018-03-25T20:33:32.441Z,59.20
2018-03-25T20:35:59.931Z,59.50
2018-03-25T20:38:36.152Z,60.50
2018-03-25T20:41:22.845Z,60.70
2018-03-25T20:43:57.365Z,61.40
2018-03-25T20:51:48.522Z,60.00
2018-03-25T20:54:26.573Z,60.10
2018-03-25T20:56:54.045Z,60.20
2018-03-25T20:59:34.257Z,60.70
2018-03-25T21:02:12.740Z,61.30
2018-03-25T21:04:53.018Z,61.20
2018-03-25T21:07:33.478Z,61.50
2018-03-25T21:10:01.457Z,61.70
2018-03-25T21:12:40.043Z,62.20
2018-03-25T21:15:07.529Z,62.30
2018-03-25T21:20:21.769Z,62.70
2018-03-25T21:22:49.248Z,62.80
2018-03-25T21:25:16.732Z,63.10
2018-03-25T21:27:44.213Z,63.40
2018-03-25T21:30:11.694Z,63.10
2018-03-25T21:32:55.679Z,62.80
2018-03-25T21:35:27.470Z,63.10
2018-03-25T21:37:54.949Z,63.80
2018-03-25T21:40:35.125Z,63.90
2018-03-25T21:45:53.985Z,64.00
2018-03-25T21:48:21.623Z,63.90
2018-03-25T21:51:07.377Z,64.30
2018-03-25T21:53:38.617Z,64.30
2018-03-25T21:56:06.091Z,63.90
2018-03-25T21:58:43.341Z,63.60
2018-03-25T22:01:24.787Z,63.90
2018-03-25T22:03:52.439Z,64.10
2018-03-25T22:06:20.046Z,64.40
2018-03-25T22:08:59.615Z,64.40
2018-03-25T22:17:41.472Z,64.00
2018-03-25T22:20:28.188Z,63.50
2018-03-25T22:22:58.312Z,63.30
2018-03-25T22:25:29.781Z,62.90
2018-03-25T22:28:08.891Z,62.90
2018-03-25T22:30:50.473Z,62.70
2018-03-25T22:33:18.942Z,62.50
2018-03-25T22:36:03.082Z,62.50
2018-03-25T22:38:41.958Z,62.80
2018-03-25T22:41:13.228Z,63.20
2018-03-25T22:43:56.113Z,63.30
2018-03-25T22:46:25.773Z,63.30
2018-03-25T22:49:01.354Z,63.70
2018-03-25T22:51:30.511Z,63.90
2018-03-25T22:53:59.128Z,64.20
2018-03-25T22:56:26.586Z,64.10
2018-03-25T22:58:57.824Z,64.50
2018-03-25T23:01:25.296Z,64.80
2018-03-25T23:03:55.824Z,65.00
2018-03-25T23:06:23.307Z,65.40
2018-03-25T23:08:57.481Z,65.80
2018-03-25T23:11:24.936Z,66.20
2018-03-25T23:13:56.427Z,66.70
2018-03-25T23:16:23.897Z,67.20
2018-03-25T23:18:57.300Z,67.60
2018-03-25T23:21:28.292Z,68.40
2018-03-25T23:24:04.328Z,69.90
2018-03-25T23:26:40.867Z,69.90
2018-03-25T23:29:10.930Z,70.60
2018-03-25T23:31:43.945Z,71.40
2018-03-25T23:34:21.574Z,73.00
2018-03-25T23:37:01.655Z,73.00
2018-03-25T23:39:35.052Z,73.50
2018-03-25T23:42:19.042Z,73.80
2018-03-25T23:44:46.513Z,74.00
2018-03-25T23:47:20.528Z,74.10
2018-03-25T23:50:00.406Z,74.20
2018-03-25T23:52:29.370Z,74.40
2018-03-25T23:55:04.084Z,74.90
2018-03-25T23:57:36.616Z,75.90
